createdAt,value
2019-03-26T00:00:50.874Z,7.40
2019-03-26T00:03:20.719Z,7.40
2019-03-26T00:05:50.661Z,7.40
2019-03-26T00:08:20.515Z,7.40
2019-03-26T00:10:50.447Z,7.50
2019-03-26T00:13:22.723Z,7.40
2019-03-26T00:15:57.508Z,7.40
2019-03-26T00:18:31.744Z,7.40
2019-03-26T00:21:04.364Z,7.40
2019-03-26T00:23:34.190Z,7.40
2019-03-26T00:26:04.326Z,7.40
2019-03-26T00:28:39.741Z,7.40
2019-03-26T00:31:13.639Z,7.40
2019-03-26T00:33:45.653Z,7.30
2019-03-26T00:36:20.201Z,7.30
2019-03-26T00:38:57.537Z,7.30
2019-03-26T00:41:28.672Z,7.30
2019-03-26T00:43:58.511Z,7.20
2019-03-26T00:46:28.367Z,7.20
2019-03-26T00:48:58.233Z,7.20
2019-03-26T00:51:28.089Z,7.20
2019-03-26T00:53:57.967Z,7.30
2019-03-26T00:56:34.560Z,7.30
2019-03-26T00:59:04.427Z,7.30
2019-03-26T01:01:36.575Z,7.30
2019-03-26T01:04:11.148Z,7.30
2019-03-26T01:06:43.602Z,7.30
2019-03-26T01:09:13.467Z,7.30
2019-03-26T01:11:43.364Z,7.20
2019-03-26T01:14:13.204Z,7.20
2019-03-26T01:16:45.149Z,7.20
2019-03-26T01:19:15.046Z,7.20
2019-03-26T01:21:44.938Z,7.20
2019-03-26T01:24:23.625Z,7.20
2019-03-26T01:27:02.840Z,7.10
2019-03-26T01:29:42.839Z,7.10
2019-03-26T01:32:12.785Z,7.10
2019-03-26T01:34:46.176Z,7.00
2019-03-26T01:37:14.264Z,7.00
2019-03-26T01:39:47.145Z,7.00
2019-03-26T01:42:17.072Z,7.00
2019-03-26T01:44:46.936Z,7.10
2019-03-26T01:47:18.411Z,7.00
2019-03-26T01:49:48.377Z,7.00
2019-03-26T01:52:18.218Z,7.10
2019-03-26T01:54:48.076Z,7.10
2019-03-26T01:57:17.934Z,7.10
2019-03-26T01:59:55.691Z,7.00
2019-03-26T02:02:25.595Z,7.00
2019-03-26T02:05:05.094Z,7.00
2019-03-26T02:07:35.035Z,7.00
2019-03-26T02:10:15.341Z,6.90
2019-03-26T02:12:48.344Z,6.90
2019-03-26T02:15:28.069Z,7.00
2019-03-26T02:17:57.995Z,6.90
2019-03-26T02:20:30.861Z,6.90
2019-03-26T02:23:00.841Z,6.90
2019-03-26T02:25:30.676Z,7.00
2019-03-26T02:28:00.558Z,7.00
2019-03-26T02:30:30.474Z,7.00
2019-03-26T02:33:00.483Z,6.90
2019-03-26T02:35:30.399Z,6.90
2019-03-26T02:38:00.331Z,7.00
2019-03-26T02:40:30.233Z,7.00
2019-03-26T02:43:00.205Z,7.00
2019-03-26T02:45:30.078Z,7.00
2019-03-26T02:47:59.939Z,7.00
2019-03-26T02:50:29.925Z,7.00
2019-03-26T02:52:59.872Z,7.00
2019-03-26T02:55:29.763Z,7.00
2019-03-26T02:57:59.677Z,7.00
2019-03-26T03:00:29.506Z,7.00
2019-03-26T03:02:59.418Z,7.00
2019-03-26T03:05:35.652Z,7.00
2019-03-26T03:08:01.051Z,7.00
2019-03-26T03:10:30.915Z,7.00
2019-03-26T03:13:00.829Z,7.00
2019-03-26T03:15:30.677Z,7.00
2019-03-26T03:18:00.616Z,7.00
2019-03-26T03:20:30.437Z,7.00
2019-03-26T03:23:00.328Z,7.10
2019-03-26T03:25:30.269Z,7.00
2019-03-26T03:28:00.277Z,7.10
2019-03-26T03:30:30.218Z,7.10
2019-03-26T03:33:00.226Z,7.00
2019-03-26T03:35:30.107Z,7.10
2019-03-26T03:38:00.021Z,7.10
2019-03-26T03:40:29.865Z,7.10
2019-03-26T03:42:59.734Z,7.10
2019-03-26T03:45:30.640Z,7.10
2019-03-26T03:48:00.817Z,7.10
2019-03-26T03:50:32.647Z,7.00
2019-03-26T03:53:02.661Z,7.00
2019-03-26T03:55:33.191Z,7.00
2019-03-26T03:58:03.449Z,7.00
2019-03-26T04:00:37.530Z,7.10
2019-03-26T04:03:07.985Z,7.10
2019-03-26T04:05:38.368Z,7.00
2019-03-26T04:08:08.399Z,7.10
2019-03-26T04:10:41.273Z,7.10
2019-03-26T04:13:11.207Z,7.00
2019-03-26T04:15:41.122Z,7.00
2019-03-26T04:18:11.056Z,7.00
2019-03-26T04:20:40.874Z,7.00
2019-03-26T04:23:10.897Z,7.00
2019-03-26T04:25:40.810Z,7.00
2019-03-26T04:28:10.733Z,7.00
2019-03-26T04:30:40.596Z,7.00
2019-03-26T04:33:10.469Z,7.00
2019-03-26T04:35:40.335Z,7.00
2019-03-26T04:38:10.177Z,7.00
2019-03-26T04:40:40.058Z,7.00
2019-03-26T04:43:10.009Z,7.00
2019-03-26T04:45:39.892Z,7.00
2019-03-26T04:48:09.800Z,7.00
2019-03-26T04:50:39.667Z,7.00
2019-03-26T04:53:09.513Z,7.00
2019-03-26T04:55:39.493Z,7.10
2019-03-26T04:58:09.354Z,7.00
2019-03-26T05:00:39.333Z,7.00
2019-03-26T05:03:09.194Z,7.00
2019-03-26T05:05:39.040Z,7.00
2019-03-26T05:08:08.923Z,7.00
2019-03-26T05:10:38.810Z,7.00
2019-03-26T05:13:08.710Z,7.00
2019-03-26T05:15:38.639Z,7.00
2019-03-26T05:18:08.514Z,7.00
2019-03-26T05:20:38.343Z,7.00
2019-03-26T05:23:08.213Z,7.00
2019-03-26T05:25:38.106Z,7.00
2019-03-26T05:28:07.961Z,7.00
2019-03-26T05:30:37.798Z,7.00
2019-03-26T05:33:07.672Z,7.10
2019-03-26T05:35:37.604Z,7.10
2019-03-26T05:38:07.571Z,7.10
2019-03-26T05:40:37.614Z,7.00
2019-03-26T05:43:07.491Z,7.10
2019-03-26T05:45:37.411Z,7.10
2019-03-26T05:48:07.267Z,7.10
2019-03-26T05:50:37.165Z,7.10
2019-03-26T05:53:09.449Z,7.10
2019-03-26T05:55:39.321Z,7.10
2019-03-26T05:58:09.276Z,7.20
2019-03-26T06:00:39.212Z,7.20
2019-03-26T06:03:09.135Z,7.20
2019-03-26T06:05:39.009Z,7.20
2019-03-26T06:08:09.023Z,7.10
2019-03-26T06:10:38.905Z,7.10
2019-03-26T06:13:08.779Z,7.10
2019-03-26T06:15:38.745Z,7.10
2019-03-26T06:18:08.657Z,7.20
2019-03-26T06:20:38.527Z,7.20
2019-03-26T06:23:08.452Z,7.30
2019-03-26T06:25:38.264Z,7.30
2019-03-26T06:28:08.176Z,7.30
2019-03-26T06:30:38.035Z,7.40
2019-03-26T06:33:07.896Z,7.40
2019-03-26T06:35:37.789Z,7.50
2019-03-26T06:38:07.682Z,7.50
2019-03-26T06:40:37.722Z,7.60
2019-03-26T06:43:07.575Z,7.60
2019-03-26T06:45:37.442Z,7.70
2019-03-26T06:48:07.392Z,7.70
2019-03-26T06:50:37.218Z,7.80
2019-03-26T06:53:07.149Z,7.80
2019-03-26T06:55:37.012Z,7.80
2019-03-26T06:58:06.912Z,7.70
2019-03-26T07:00:36.974Z,7.70
2019-03-26T07:03:07.721Z,7.80
2019-03-26T07:05:37.571Z,7.90
2019-03-26T07:08:12.920Z,8.00
2019-03-26T07:10:42.810Z,8.10
2019-03-26T07:13:16.388Z,8.10
2019-03-26T07:16:00.469Z,8.20
2019-03-26T07:18:42.839Z,8.20
2019-03-26T07:21:48.770Z,8.10
2019-03-26T07:24:04.523Z,8.20
2019-03-26T07:26:41.218Z,8.10
2019-03-26T07:29:24.420Z,8.10
2019-03-26T07:32:14.733Z,8.10
2019-03-26T07:35:00.448Z,8.20
2019-03-26T07:37:30.422Z,8.20
2019-03-26T07:40:00.440Z,8.20
2019-03-26T07:42:30.379Z,8.30
2019-03-26T07:45:00.458Z,8.40
2019-03-26T07:47:30.339Z,8.40
2019-03-26T07:50:00.364Z,8.40
2019-03-26T07:52:30.274Z,8.50
2019-03-26T07:55:00.367Z,8.60
2019-03-26T07:57:30.386Z,8.60
2019-03-26T08:00:50.346Z,8.90
2019-03-26T08:03:17.615Z,9.20
2019-03-26T08:05:47.443Z,9.50
2019-03-26T08:08:17.358Z,9.70
2019-03-26T08:10:48.653Z,9.90
2019-03-26T08:13:18.599Z,10.10
2019-03-26T08:15:48.558Z,10.10
2019-03-26T08:18:18.486Z,10.30
2019-03-26T08:20:48.401Z,10.40
2019-03-26T08:23:19.819Z,10.50
2019-03-26T08:25:49.701Z,10.60
2019-03-26T08:28:19.601Z,10.70
2019-03-26T08:30:50.351Z,10.90
2019-03-26T08:33:23.255Z,11.00
2019-03-26T08:35:54.239Z,11.10
2019-03-26T08:38:24.112Z,11.00
2019-03-26T08:40:53.967Z,10.90
2019-03-26T08:43:23.858Z,10.90
2019-03-26T08:45:53.756Z,10.90
2019-03-26T08:48:23.666Z,10.80
2019-03-26T08:50:54.644Z,10.60
2019-03-26T08:53:24.570Z,10.30
2019-03-26T08:55:54.452Z,10.00
2019-03-26T08:58:24.384Z,10.00
2019-03-26T09:00:54.309Z,9.90
2019-03-26T09:03:24.308Z,10.10
2019-03-26T09:05:54.316Z,10.30
2019-03-26T09:08:25.617Z,10.50
2019-03-26T09:10:55.801Z,10.80
2019-03-26T09:13:25.715Z,11.20
2019-03-26T09:15:55.578Z,11.90
2019-03-26T09:18:25.471Z,13.20
2019-03-26T09:20:55.395Z,14.20
2019-03-26T09:23:25.306Z,15.00
2019-03-26T09:25:55.185Z,15.30
2019-03-26T09:28:25.069Z,15.50
2019-03-26T09:30:54.936Z,15.80
2019-03-26T09:33:24.786Z,15.80
2019-03-26T09:35:54.642Z,15.70
2019-03-26T09:38:38.011Z,15.00
2019-03-26T09:40:58.461Z,14.50
2019-03-26T09:43:28.324Z,14.40
2019-03-26T09:45:58.269Z,14.30
2019-03-26T09:48:28.131Z,14.00
2019-03-26T09:54:40.606Z,13.40
2019-03-26T09:57:10.564Z,13.10
2019-03-26T09:59:40.464Z,12.90
2019-03-26T10:02:10.411Z,12.70
2019-03-26T10:04:40.274Z,12.40
2019-03-26T10:07:20.755Z,11.90
2019-03-26T10:09:41.831Z,11.80
2019-03-26T10:12:11.754Z,12.20
2019-03-26T10:14:41.660Z,12.10
2019-03-26T10:17:11.690Z,12.20
2019-03-26T10:19:41.583Z,12.20
2019-03-26T10:22:11.526Z,11.90
2019-03-26T10:24:41.446Z,11.70
2019-03-26T10:27:11.374Z,11.30
2019-03-26T10:29:41.349Z,10.90
2019-03-26T10:32:11.336Z,10.80
2019-03-26T10:34:41.349Z,10.60
2019-03-26T10:37:11.349Z,10.60
2019-03-26T10:39:41.313Z,10.60
2019-03-26T10:42:11.282Z,10.70
2019-03-26T10:44:41.227Z,10.70
2019-03-26T10:47:11.210Z,10.70
2019-03-26T10:49:41.112Z,10.70
2019-03-26T10:52:11.122Z,10.80
2019-03-26T10:54:40.997Z,10.80
2019-03-26T10:57:10.871Z,10.90
2019-03-26T10:59:40.778Z,10.80
2019-03-26T11:02:10.704Z,10.90
2019-03-26T11:04:40.593Z,10.90
2019-03-26T11:07:10.499Z,10.80
2019-03-26T11:09:40.879Z,10.90
2019-03-26T11:12:10.751Z,11.00
2019-03-26T11:14:40.773Z,11.00
2019-03-26T11:17:10.672Z,11.00
2019-03-26T11:19:40.550Z,11.00
2019-03-26T11:22:10.392Z,10.90
2019-03-26T11:24:40.261Z,10.90
2019-03-26T11:27:10.210Z,10.80
2019-03-26T11:29:40.117Z,11.00
2019-03-26T11:32:10.092Z,11.30
2019-03-26T11:34:40.080Z,11.60
2019-03-26T11:37:10.052Z,11.90
2019-03-26T11:39:40.101Z,12.20
2019-03-26T11:42:10.125Z,12.60
2019-03-26T11:44:40.138Z,12.90
2019-03-26T11:47:10.159Z,13.20
2019-03-26T11:49:40.133Z,13.40
2019-03-26T11:52:10.026Z,13.60
2019-03-26T11:54:41.837Z,13.80
2019-03-26T11:57:11.615Z,13.80
2019-03-26T11:59:41.484Z,13.70
2019-03-26T12:02:12.030Z,13.80
2019-03-26T12:04:41.889Z,14.00
2019-03-26T12:07:11.850Z,14.10
2019-03-26T12:09:46.488Z,14.40
2019-03-26T12:12:13.302Z,14.40
2019-03-26T12:14:43.192Z,14.40
2019-03-26T12:17:14.935Z,14.30
2019-03-26T12:19:44.704Z,14.50
2019-03-26T12:22:14.556Z,14.60
2019-03-26T12:24:44.425Z,14.60
2019-03-26T12:27:14.328Z,14.50
2019-03-26T12:29:44.250Z,14.10
2019-03-26T12:32:14.232Z,13.50
2019-03-26T12:34:44.110Z,13.30
2019-03-26T12:37:13.987Z,13.00
2019-03-26T12:39:44.341Z,12.70
2019-03-26T12:42:14.362Z,12.40
2019-03-26T12:44:44.212Z,12.30
2019-03-26T12:47:14.076Z,12.10
2019-03-26T12:49:44.036Z,11.90
2019-03-26T12:52:13.934Z,11.70
2019-03-26T12:54:43.842Z,11.50
2019-03-26T12:57:14.029Z,11.20
2019-03-26T12:59:44.029Z,11.10
2019-03-26T13:02:13.911Z,11.00
2019-03-26T13:04:43.807Z,11.00
2019-03-26T13:07:13.694Z,11.00
2019-03-26T13:09:43.630Z,11.20
2019-03-26T13:12:13.575Z,11.40
2019-03-26T13:14:43.448Z,11.70
2019-03-26T13:17:13.421Z,11.80
2019-03-26T13:19:43.832Z,11.90
2019-03-26T13:22:13.722Z,12.00
2019-03-26T13:24:43.595Z,12.20
2019-03-26T13:27:13.576Z,12.30
2019-03-26T13:29:43.513Z,12.50
2019-03-26T13:32:13.434Z,12.50
2019-03-26T13:34:43.460Z,12.50
2019-03-26T13:37:13.304Z,12.50
2019-03-26T13:39:43.279Z,12.60
2019-03-26T13:42:13.161Z,12.40
2019-03-26T13:44:43.074Z,12.30
2019-03-26T13:47:12.996Z,12.20
2019-03-26T13:49:42.895Z,12.00
2019-03-26T13:52:12.804Z,11.90
2019-03-26T13:54:42.767Z,11.70
2019-03-26T13:57:12.639Z,11.60
2019-03-26T13:59:42.515Z,11.50
2019-03-26T14:02:12.495Z,11.60
2019-03-26T14:04:42.324Z,11.40
2019-03-26T14:07:12.199Z,11.50
2019-03-26T14:09:42.090Z,11.60
2019-03-26T14:12:11.993Z,11.70
2019-03-26T14:14:41.929Z,11.80
2019-03-26T14:17:11.802Z,11.70
2019-03-26T14:19:41.697Z,11.80
2019-03-26T14:22:11.609Z,11.90
2019-03-26T14:24:41.481Z,11.90
2019-03-26T14:27:13.096Z,11.80
2019-03-26T14:29:43.003Z,11.90
2019-03-26T14:32:13.002Z,11.90
2019-03-26T14:34:42.854Z,11.90
2019-03-26T14:37:12.862Z,11.80
2019-03-26T14:39:42.847Z,11.90
2019-03-26T14:42:12.720Z,11.90
2019-03-26T14:44:42.657Z,11.90
2019-03-26T14:47:12.519Z,12.00
2019-03-26T14:49:42.417Z,11.70
2019-03-26T14:52:12.281Z,11.50
2019-03-26T14:54:42.206Z,11.50
2019-03-26T14:57:12.051Z,11.50
2019-03-26T14:59:41.883Z,11.50
2019-03-26T15:02:11.773Z,11.40
2019-03-26T15:04:41.614Z,11.10
2019-03-26T15:07:11.472Z,10.80
2019-03-26T15:09:41.488Z,10.70
2019-03-26T15:12:11.348Z,10.60
2019-03-26T15:14:41.257Z,10.60
2019-03-26T15:17:11.113Z,10.50
2019-03-26T15:19:40.976Z,10.40
2019-03-26T15:22:10.899Z,10.50
2019-03-26T15:24:40.797Z,10.50
2019-03-26T15:27:10.633Z,10.40
2019-03-26T15:29:40.574Z,10.40
2019-03-26T15:32:10.456Z,10.40
2019-03-26T15:34:40.372Z,10.40
2019-03-26T15:37:10.240Z,10.30
2019-03-26T15:39:40.101Z,10.40
2019-03-26T15:42:09.996Z,10.40
2019-03-26T15:44:39.882Z,10.50
2019-03-26T15:47:09.890Z,10.50
2019-03-26T15:49:39.822Z,10.60
2019-03-26T15:52:09.727Z,10.70
2019-03-26T15:54:39.600Z,10.80
2019-03-26T15:57:09.446Z,10.80
2019-03-26T15:59:39.363Z,10.90
2019-03-26T16:02:09.250Z,10.90
2019-03-26T16:04:39.137Z,10.90
2019-03-26T16:07:08.990Z,10.90
2019-03-26T16:09:38.886Z,10.80
2019-03-26T16:12:08.796Z,10.70
2019-03-26T16:14:38.685Z,10.70
2019-03-26T16:17:08.552Z,10.60
2019-03-26T16:19:38.493Z,10.60
2019-03-26T16:22:08.399Z,10.50
2019-03-26T16:24:38.318Z,10.30
2019-03-26T16:27:08.176Z,10.30
2019-03-26T16:29:38.178Z,10.30
2019-03-26T16:32:08.053Z,10.20
2019-03-26T16:34:39.750Z,10.20
2019-03-26T16:37:10.247Z,10.20
2019-03-26T16:39:40.123Z,10.20
2019-03-26T16:42:10.001Z,10.20
2019-03-26T16:44:39.903Z,10.20
2019-03-26T16:47:09.860Z,10.20
2019-03-26T16:49:39.776Z,10.20
2019-03-26T16:52:09.663Z,10.10
2019-03-26T16:54:39.567Z,10.20
2019-03-26T16:57:09.435Z,10.10
2019-03-26T16:59:39.365Z,10.10
2019-03-26T17:02:09.245Z,10.00
2019-03-26T17:04:39.142Z,10.00
2019-03-26T17:07:09.068Z,9.90
2019-03-26T17:09:38.942Z,9.90
2019-03-26T17:12:08.865Z,9.90
2019-03-26T17:14:38.779Z,9.80
2019-03-26T17:17:08.721Z,9.80
2019-03-26T17:19:38.610Z,9.80
2019-03-26T17:22:08.565Z,9.80
2019-03-26T17:24:38.592Z,9.80
2019-03-26T17:27:08.525Z,9.80
2019-03-26T17:29:38.490Z,9.80
2019-03-26T17:32:08.386Z,9.80
2019-03-26T17:34:38.237Z,9.80
2019-03-26T17:37:08.209Z,9.80
2019-03-26T17:39:38.177Z,9.80
2019-03-26T17:42:17.153Z,9.70
2019-03-26T17:44:39.743Z,9.70
2019-03-26T17:47:09.696Z,9.70
2019-03-26T17:49:39.599Z,9.70
2019-03-26T17:52:09.527Z,9.60
2019-03-26T17:54:39.407Z,9.70
2019-03-26T17:57:09.326Z,9.70
2019-03-26T17:59:39.177Z,9.70
2019-03-26T18:02:09.040Z,9.70
2019-03-26T18:04:38.925Z,9.70
2019-03-26T18:07:08.866Z,9.60
2019-03-26T18:09:38.768Z,9.60
2019-03-26T18:12:08.702Z,9.60
2019-03-26T18:14:38.613Z,9.60
2019-03-26T18:17:08.468Z,9.60
2019-03-26T18:19:38.334Z,9.50
2019-03-26T18:22:08.275Z,9.50
2019-03-26T18:24:38.156Z,9.50
2019-03-26T18:27:08.043Z,9.50
2019-03-26T18:29:38.024Z,9.50
2019-03-26T18:32:07.889Z,9.50
2019-03-26T18:34:37.740Z,9.50
2019-03-26T18:37:07.760Z,9.50
2019-03-26T18:39:37.602Z,9.50
2019-03-26T18:42:07.489Z,9.50
2019-03-26T18:44:37.340Z,9.40
2019-03-26T18:47:07.796Z,9.50
2019-03-26T18:49:37.715Z,9.50
2019-03-26T18:52:07.673Z,9.50
2019-03-26T18:54:37.654Z,9.50
2019-03-26T18:57:07.593Z,9.50
2019-03-26T18:59:37.493Z,9.50
2019-03-26T19:02:07.393Z,9.50
2019-03-26T19:04:37.320Z,9.60
2019-03-26T19:07:07.300Z,9.60
2019-03-26T19:09:37.224Z,9.60
2019-03-26T19:12:07.189Z,9.60
2019-03-26T19:14:37.121Z,9.60
2019-03-26T19:17:07.085Z,9.60
2019-03-26T19:19:36.936Z,9.60
2019-03-26T19:22:06.824Z,9.50
2019-03-26T19:24:36.729Z,9.50
2019-03-26T19:27:06.669Z,9.50
2019-03-26T19:29:36.557Z,9.50
2019-03-26T19:32:06.423Z,9.50
2019-03-26T19:34:36.351Z,9.40
2019-03-26T19:37:06.336Z,9.40
2019-03-26T19:39:36.313Z,9.40
2019-03-26T19:42:06.265Z,9.40
2019-03-26T19:44:36.173Z,9.40
2019-03-26T19:47:06.073Z,9.40
2019-03-26T19:49:35.957Z,9.40
2019-03-26T19:52:05.913Z,9.40
2019-03-26T19:54:35.924Z,9.40
2019-03-26T19:57:05.857Z,9.30
2019-03-26T19:59:35.838Z,9.40
2019-03-26T20:02:05.676Z,9.40
2019-03-26T20:04:35.567Z,9.40
2019-03-26T20:07:05.470Z,9.40
2019-03-26T20:09:35.450Z,9.40
2019-03-26T20:12:05.514Z,9.30
2019-03-26T20:14:35.421Z,9.30
2019-03-26T20:17:05.347Z,9.30
2019-03-26T20:19:35.286Z,9.30
2019-03-26T20:22:05.227Z,9.30
2019-03-26T20:24:35.344Z,9.30
2019-03-26T20:27:05.335Z,9.30
2019-03-26T20:29:35.335Z,9.30
2019-03-26T20:32:05.318Z,9.30
2019-03-26T20:34:35.276Z,9.20
2019-03-26T20:37:05.232Z,9.20
2019-03-26T20:39:35.110Z,9.20
2019-03-26T20:42:05.237Z,9.10
2019-03-26T20:44:35.318Z,9.10
2019-03-26T20:47:05.199Z,9.10
2019-03-26T20:49:35.099Z,9.10
2019-03-26T20:52:05.053Z,9.10
2019-03-26T20:54:34.995Z,9.10
2019-03-26T20:57:04.958Z,9.10
2019-03-26T20:59:34.835Z,9.10
2019-03-26T21:02:04.790Z,9.10
2019-03-26T21:04:34.679Z,9.10
2019-03-26T21:07:04.675Z,9.10
2019-03-26T21:09:34.590Z,9.10
2019-03-26T21:12:04.544Z,9.10
2019-03-26T21:14:34.443Z,9.10
2019-03-26T21:17:04.356Z,9.10
2019-03-26T21:19:34.283Z,9.10
2019-03-26T21:22:04.180Z,9.10
2019-03-26T21:24:34.524Z,9.10
2019-03-26T21:29:46.458Z,9.10
2019-03-26T21:32:16.423Z,9.10
2019-03-26T21:34:46.378Z,9.10
2019-03-26T21:37:16.287Z,9.10
2019-03-26T21:39:46.192Z,9.10
2019-03-26T21:42:16.051Z,9.10
2019-03-26T21:44:46.029Z,9.00
2019-03-26T21:47:15.941Z,9.00
2019-03-26T21:49:48.391Z,9.00
2019-03-26T21:52:17.443Z,9.00
2019-03-26T21:54:47.359Z,9.00
2019-03-26T21:57:17.177Z,9.00
2019-03-26T21:59:47.066Z,9.00
2019-03-26T22:02:16.911Z,9.00
2019-03-26T22:04:46.808Z,9.10
2019-03-26T22:07:16.682Z,9.00
2019-03-26T22:09:46.568Z,9.00
2019-03-26T22:12:16.440Z,9.00
2019-03-26T22:14:46.316Z,9.00
2019-03-26T22:17:16.189Z,8.90
2019-03-26T22:19:46.094Z,8.90
2019-03-26T22:22:15.945Z,9.00
2019-03-26T22:24:45.806Z,8.90
2019-03-26T22:27:16.568Z,8.90
2019-03-26T22:29:46.454Z,8.90
2019-03-26T22:32:16.296Z,8.90
2019-03-26T22:34:46.160Z,8.90
2019-03-26T22:37:16.048Z,8.90
2019-03-26T22:39:45.910Z,8.90
2019-03-26T22:42:15.840Z,8.90
2019-03-26T22:44:45.720Z,8.90
2019-03-26T22:47:15.644Z,8.90
2019-03-26T22:49:45.517Z,8.90
2019-03-26T22:52:15.400Z,8.90
2019-03-26T22:54:45.247Z,8.90
2019-03-26T22:57:15.200Z,8.80
2019-03-26T22:59:45.103Z,8.70
2019-03-26T23:02:15.029Z,8.70
2019-03-26T23:04:44.922Z,8.70
2019-03-26T23:07:14.932Z,8.60
2019-03-26T23:09:44.815Z,8.60
2019-03-26T23:12:14.664Z,8.50
2019-03-26T23:14:45.622Z,8.40
2019-03-26T23:17:15.568Z,8.40
2019-03-26T23:19:45.435Z,8.40
2019-03-26T23:22:15.362Z,8.30
2019-03-26T23:24:45.270Z,8.20
2019-03-26T23:27:15.136Z,8.10
2019-03-26T23:29:44.985Z,8.10
2019-03-26T23:32:14.857Z,8.00
2019-03-26T23:34:44.788Z,7.90
2019-03-26T23:37:14.653Z,7.80
2019-03-26T23:39:44.544Z,7.80
2019-03-26T23:42:14.365Z,7.70
2019-03-26T23:44:57.476Z,7.60
2019-03-26T23:47:15.833Z,7.60
2019-03-26T23:49:45.677Z,7.60
2019-03-26T23:52:15.799Z,7.60
2019-03-26T23:54:45.649Z,7.50
2019-03-26T23:57:15.472Z,7.50
2019-03-26T23:59:45.352Z,7.50
